Partizansk, Russia

12:51 PM +10 on April 25, 2017 (GMT +1000)
LES "Nakhodka" | | Change Station

Elev 292 ft 42.86 °N, 132.79 °E | Updated 54 seconds ago

Partly Cloudy
Partly Cloudy
50.4 °F
Feels Like 50.4 °F
N
5.4
Wind Variable Wind from SW
Gusts 9.2 mph

Today
High -- | Low -- °F
--% Chance of Precip.
Yesterday
High -- | Low -- °F
Precip. -- in
Pressure 29.92 in
Visibility 6.2 miles
Clouds Mostly Cloudy 2600 ft
Dew Point 42 °F
Humidity 74%
Rainfall 0.00 in
Snow Depth Not available.
6:10 AM 8:01 PM
Waning Crescent, 3% visible
METAR UHWW 250230Z 10003MPS 060V140 9999 BKN026 12/06 Q1013 R25L/19//65 NOSIG RMK QFE759
Pressure 29.92 in
Visibility 6.2 miles
Clouds Mostly Cloudy 2600 ft
Dew Point 42 °F
Humidity 74%
Rainfall 0.00 in
Snow Depth Not available.
6:10 AM 8:01 PM
Waning Crescent, 3% visible
METAR UHWW 250230Z 10003MPS 060V140 9999 BKN026 12/06 Q1013 R25L/19//65 NOSIG RMK QFE759

Get Severe Weather Alerts

Thanks for signing up!

Be on the lookout for a verification email in your inbox.

You'll start receiving the daily forecast at 8 AM.

×

10-Day Weather Forecast

×

Almanac

Astronomy

Apr. 25, 2017 Rise Set
Actual Time
Civil Twilight
Nautical Twilight
Astronomical Twilight
Moon
Length of Visible Light
Length of Day
Tomorrow will be .
, % of the Moon is Illuminated

Today's Extremes

Country Highs Country Lows

Community

WunderPhotos

WunderBlog® & News

Nearby

Air Quality

  Air Quality AQ Index Pollutant
Not available.

Snow Depth

Station Depth Elevation

Earthquake Activity

City Distance Mag. Time & Date
Minimum magnitude displayed is 2.5.

Coastal Water Temperatures

Place Temperature

Stations

Nearby Weather Stations

Station Location Temp. Windchill Dew Point Humidity Wind Precip. Elev Updated Type